.
WxDataArchive / Data Records for 2013-01-04
2013-01-03 January 2013 2013-01-05

Data Records for Friday, 04 January 2013

Time	Temp	Chill	HIndex	Humid	Dewpt	 Wind 	HiWind	WindDir	Rain 	Barom 
-----	----	-----	------	-----	-----	------	------	-------	-----	----- 
00:00	27.6	27.6	27.6	72	19.8	2	7	248	0.00	30.256 
00:05	27.6	27.6	27.6	72	19.8	2	7	248	0.00	30.256 
00:10	27.6	27.6	27.6	73	20.1	1	5	248	0.00	30.256 
00:15	27.5	27.5	27.5	73	20.0	1	4	248	0.00	30.254 
00:20	27.3	27.3	27.3	73	19.8	1	5	248	0.00	30.254 
00:25	27.2	27.2	27.2	73	19.7	2	5	248	0.00	30.254 
00:30	27.0	27.0	27.0	72	19.2	1	5	248	0.00	30.251 
00:35	26.9	26.9	26.9	72	19.1	1	3	248	0.00	30.251 
00:40	26.7	26.7	26.7	72	18.9	1	6	248	0.00	30.251 
00:45	26.4	26.4	26.4	72	18.6	1	4	248	0.00	30.242 
00:50	26.3	26.3	26.3	71	18.2	2	6	248	0.00	30.242 
00:55	26.0	26.0	26.0	71	17.9	2	6	248	0.00	30.242 
01:00	25.8	25.8	25.8	71	17.7	1	3	248	0.00	30.238 
01:05	25.7	25.7	25.7	71	17.6	1	5	248	0.00	30.238 
01:10	25.6	25.6	25.6	71	17.5	2	4	248	0.00	30.238 
01:15	25.4	25.4	25.4	71	17.3	2	5	248	0.00	30.239 
01:20	25.3	25.3	25.3	71	17.2	1	5	248	0.00	30.239 
01:25	25.1	25.1	25.1	71	17.0	1	4	248	0.00	30.239 
01:30	25.0	25.0	25.0	71	16.9	2	6	248	0.00	30.242 
01:35	24.8	24.8	24.8	71	16.8	2	4	248	0.00	30.242 
01:40	24.7	24.7	24.7	71	16.7	1	4	248	0.00	30.242 
01:45	24.7	24.7	24.7	71	16.7	2	5	248	0.00	30.245 
01:50	24.4	24.4	24.4	72	16.7	2	7	248	0.00	30.245 
01:55	24.2	24.2	24.2	72	16.5	2	4	248	0.00	30.245 
02:00	24.1	24.1	24.1	72	16.4	2	6	248	0.00	30.247 
02:05	23.9	23.9	23.9	73	16.5	1	5	248	0.00	30.247 
02:10	23.8	23.8	23.8	73	16.4	2	6	248	0.00	30.247 
02:15	23.5	23.5	23.5	73	16.1	3	9	248	0.00	30.253 
02:20	23.3	23.3	23.3	73	15.9	1	4	248	0.00	30.253 
02:25	23.0	23.0	23.0	73	15.7	2	4	248	0.00	30.253 
02:30	22.7	22.7	22.7	74	15.7	1	6	248	0.00	30.258 
02:35	22.4	22.4	22.4	74	15.4	1	3	248	0.00	30.258 
02:40	22.1	22.1	22.1	74	15.1	1	4	248	0.00	30.258 
02:45	21.9	21.9	21.9	75	15.2	1	5	225	0.00	30.259 
02:50	21.8	21.8	21.8	75	15.1	1	6	248	0.00	30.259 
02:55	21.4	21.4	21.4	75	14.7	1	4	248	0.00	30.259 
03:00	21.1	21.1	21.1	76	14.7	1	4	248	0.00	30.261 
03:05	21.0	21.0	21.0	76	14.6	1	4	248	0.00	30.261 
03:10	20.8	20.8	20.8	76	14.5	1	5	248	0.00	30.261 
03:15	20.6	20.6	20.6	77	14.6	2	7	248	0.00	30.260 
03:20	20.5	20.5	20.5	77	14.5	1	5	248	0.00	30.260 
03:25	20.3	20.3	20.3	77	14.3	1	4	248	0.00	30.260 
03:30	20.3	20.3	20.3	77	14.3	2	4	248	0.00	30.259 
03:35	20.2	20.2	20.2	78	14.5	1	5	248	0.00	30.259 
03:40	20.2	20.2	20.2	78	14.5	1	4	248	0.00	30.259 
03:45	20.0	20.0	20.0	78	14.3	1	4	248	0.00	30.255 
03:50	20.0	20.0	20.0	79	14.6	1	4	248	0.00	30.255 
03:55	20.0	20.0	20.0	79	14.6	1	5	248	0.00	30.255 
04:00	20.0	20.0	20.0	79	14.6	2	5	248	0.00	30.250 
04:05	20.0	20.0	20.0	79	14.6	1	4	248	0.00	30.250 
04:10	20.0	20.0	20.0	79	14.6	1	5	248	0.00	30.250 
04:15	19.9	19.9	19.9	79	14.5	2	5	248	0.00	30.245 
04:20	19.9	19.9	19.9	80	14.7	1	5	248	0.00	30.245 
04:25	19.9	19.9	19.9	80	14.7	1	4	248	0.00	30.245 
04:30	19.7	19.7	19.7	80	14.6	1	3	248	0.00	30.243 
04:35	19.7	19.7	19.7	80	14.6	2	5	248	0.00	30.243 
04:40	19.7	19.7	19.7	80	14.6	2	5	248	0.00	30.243 
04:45	19.7	19.7	19.7	80	14.6	0	2	248	0.00	30.243 
04:50	19.5	19.5	19.5	80	14.4	1	4	248	0.00	30.243 
04:55	19.4	19.4	19.4	80	14.3	2	4	248	0.00	30.243 
05:00	19.4	19.4	19.4	80	14.3	1	5	248	0.00	30.245 
05:05	19.2	19.2	19.2	80	14.1	2	5	248	0.00	30.245 
05:10	19.2	19.2	19.2	80	14.1	1	4	248	0.00	30.245 
05:15	19.1	19.1	19.1	80	14.0	1	5	248	0.00	30.245 
05:20	18.9	18.9	18.9	80	13.8	1	6	248	0.00	30.245 
05:25	18.9	18.9	18.9	80	13.8	1	5	248	0.00	30.245 
05:30	18.8	18.8	18.8	80	13.7	2	6	248	0.00	30.244 
05:35	18.8	18.8	18.8	80	13.7	1	4	248	0.00	30.244 
05:40	18.6	18.6	18.6	80	13.5	1	4	225	0.00	30.244 
05:45	18.6	18.6	18.6	80	13.5	1	5	248	0.00	30.242 
05:50	18.4	18.4	18.4	80	13.3	1	4	248	0.00	30.242 
05:55	18.3	18.3	18.3	80	13.2	1	5	248	0.00	30.242 
06:00	18.3	18.3	18.3	80	13.2	1	5	248	0.00	30.244 
06:05	18.1	18.1	18.1	80	13.0	0	3	248	0.00	30.244 
06:10	18.0	18.0	18.0	80	12.9	1	4	248	0.00	30.244 
06:15	18.0	18.0	18.0	81	13.2	1	4	248	0.00	30.244 
06:20	17.8	17.8	17.8	80	12.7	1	6	248	0.00	30.244 
06:25	17.8	17.8	17.8	81	13.0	2	5	248	0.00	30.244 
06:30	17.7	17.7	17.7	80	12.6	1	4	248	0.00	30.245 
06:35	17.5	17.5	17.5	80	12.4	2	4	248	0.00	30.245 
06:40	17.5	17.5	17.5	80	12.4	2	6	248	0.00	30.245 
06:45	17.3	17.3	17.3	80	12.2	2	6	248	0.00	30.248 
06:50	17.3	17.3	17.3	80	12.2	1	5	248	0.00	30.248 
06:55	17.2	17.2	17.2	80	12.1	1	2	225	0.00	30.248 
07:00	17.2	17.2	17.2	80	12.1	0	2	225	0.00	30.249 
07:05	17.2	17.2	17.2	80	12.1	1	6	225	0.00	30.249 
07:10	17.2	17.2	17.2	80	12.1	1	4	248	0.00	30.249 
07:15	17.0	17.0	17.0	80	11.9	1	4	248	0.00	30.252 
07:20	17.0	17.0	17.0	80	11.9	1	3	248	0.00	30.252 
07:25	16.9	16.9	16.9	80	11.8	1	4	248	0.00	30.252 
07:30	16.9	16.9	16.9	80	11.8	1	5	248	0.00	30.248 
07:35	16.9	16.9	16.9	80	11.8	2	5	248	0.00	30.248 
07:40	16.9	16.9	16.9	80	11.8	1	3	225	0.00	30.248 
07:45	17.0	17.0	17.0	76	10.8	2	9	225	0.00	30.250 
07:50	17.0	17.0	17.0	79	11.6	1	5	248	0.00	30.250 
07:55	17.0	17.0	17.0	79	11.6	2	4	248	0.00	30.250 
08:00	17.0	17.0	17.0	78	11.3	1	5	248	0.00	30.247 
08:05	17.0	17.0	17.0	78	11.3	1	4	248	0.00	30.247 
08:10	17.0	17.0	17.0	78	11.3	2	7	248	0.00	30.247 
08:15	17.2	17.2	17.2	77	11.3	1	5	248	0.00	30.247 
08:20	17.2	17.2	17.2	77	11.3	2	6	248	0.00	30.247 
08:25	17.2	17.2	17.2	76	11.0	2	6	248	0.00	30.247 
08:30	17.2	17.2	17.2	75	10.7	3	6	248	0.00	30.251 
08:35	17.2	17.2	17.2	74	10.4	2	7	248	0.00	30.251 
08:40	17.2	17.2	17.2	74	10.4	2	5	248	0.00	30.251 
08:45	17.0	17.0	17.0	73	9.9	1	4	248	0.00	30.250 
08:50	17.0	17.0	17.0	73	9.9	2	7	248	0.00	30.250 
08:55	17.0	17.0	17.0	73	9.9	2	5	248	0.00	30.250 
09:00	17.2	17.2	17.2	73	10.1	2	5	248	0.00	30.248 
09:05	17.2	17.2	17.2	72	9.8	3	7	248	0.00	30.248 
09:10	17.2	17.2	17.2	72	9.8	3	6	248	0.00	30.248 
09:15	17.2	17.2	17.2	71	9.4	2	7	248	0.00	30.248 
09:20	17.3	17.3	17.3	71	9.5	2	9	248	0.00	30.248 
09:25	17.5	17.5	17.5	71	9.7	2	5	248	0.00	30.248 
09:30	17.7	17.7	17.7	70	9.6	2	6	248	0.00	30.249 
09:35	17.8	17.8	17.8	70	9.7	2	7	248	0.00	30.249 
09:40	18.1	18.1	18.1	69	9.7	2	6	248	0.00	30.249 
09:45	18.4	18.4	18.4	69	10.0	2	5	248	0.00	30.256 
09:50	18.6	18.6	18.6	68	9.8	2	5	248	0.00	30.256 
09:55	18.8	18.8	18.8	67	9.7	2	7	248	0.00	30.256 
10:00	18.8	18.8	18.8	66	9.4	3	7	248	0.00	30.267 
10:05	18.9	18.9	18.9	66	9.4	2	7	248	0.00	30.267 
10:10	18.9	18.9	18.9	65	9.1	3	6	248	0.00	30.267 
10:15	18.9	18.9	18.9	66	9.4	3	9	248	0.00	30.266 
10:20	18.9	18.9	18.9	66	9.4	3	7	248	0.00	30.266 
10:25	18.9	18.9	18.9	66	9.4	3	7	248	0.00	30.266 
10:30	19.1	19.1	19.1	66	9.6	2	7	248	0.00	30.276 
10:35	19.2	19.2	19.2	66	9.7	2	8	270	0.00	30.276 
10:40	19.2	19.2	19.2	65	9.4	3	8	248	0.00	30.276 
10:45	19.1	13.2	19.1	65	9.3	4	10	248	0.00	30.277 
10:50	19.2	13.3	19.2	66	9.7	4	13	248	0.00	30.277 
10:55	19.2	13.3	19.2	65	9.4	4	10	270	0.00	30.277 
11:00	19.5	19.5	19.5	66	10.0	3	7	248	0.00	30.278 
11:05	19.5	13.6	19.5	65	9.7	4	7	248	0.00	30.278 
11:10	19.9	19.9	19.9	65	10.1	3	10	270	0.00	30.278 
11:15	19.9	14.1	19.9	65	10.1	4	7	248	0.00	30.275 
11:20	20.0	14.2	20.0	65	10.2	4	9	248	0.00	30.275 
11:25	20.2	20.2	20.2	65	10.3	2	12	248	0.00	30.275 
11:30	20.3	14.6	20.3	65	10.4	4	7	270	0.00	30.266 
11:35	20.5	20.5	20.5	65	10.6	3	7	248	0.00	30.266 
11:40	20.8	20.8	20.8	65	10.9	3	7	248	0.00	30.266 
11:45	21.0	21.0	21.0	65	11.1	3	9	248	0.00	30.260 
11:50	21.1	21.1	21.1	65	11.2	3	9	248	0.00	30.260 
11:55	21.4	21.4	21.4	65	11.5	3	7	270	0.00	30.260 
12:00	21.8	16.3	21.8	65	11.9	4	10	248	0.00	30.253 
12:05	21.9	21.9	21.9	65	12.0	3	7	248	0.00	30.253 
12:10	22.2	22.2	22.2	65	12.3	3	9	248	0.00	30.253 
12:15	22.2	22.2	22.2	65	12.3	3	8	248	0.00	30.251 
12:20	22.5	22.5	22.5	65	12.5	3	6	248	0.00	30.251 
12:25	22.9	22.9	22.9	65	12.9	3	5	248	0.00	30.251 
12:30	22.9	17.6	22.9	64	12.6	4	10	248	0.00	30.240 
12:35	23.0	17.7	23.0	65	13.0	4	10	248	0.00	30.240 
12:40	23.0	23.0	23.0	65	13.0	3	9	248	0.00	30.240 
12:45	23.3	23.3	23.3	65	13.3	3	9	248	0.00	30.228 
12:50	23.5	18.3	23.5	65	13.5	4	10	248	0.00	30.228 
12:55	23.6	18.4	23.6	65	13.6	4	11	270	0.00	30.228 
13:00	23.6	18.4	23.6	65	13.6	4	14	248	0.00	30.225 
13:05	24.1	24.1	24.1	66	14.4	2	5	248	0.00	30.225 
13:10	24.4	19.3	24.4	65	14.3	4	10	248	0.00	30.225 
13:15	24.4	19.3	24.4	65	14.3	4	11	248	0.00	30.227 
13:20	24.7	24.7	24.7	65	14.6	3	8	248	0.00	30.227 
13:25	24.8	19.8	24.8	65	14.7	4	11	248	0.00	30.227 
13:30	25.0	25.0	25.0	65	14.9	3	7	248	0.00	30.220 
13:35	24.8	18.6	24.8	64	14.4	5	12	248	0.00	30.220 
13:40	24.8	19.8	24.8	65	14.7	4	11	248	0.00	30.220 
13:45	24.8	19.8	24.8	65	14.7	4	12	248	0.00	30.214 
13:50	25.1	20.1	25.1	65	15.0	4	11	270	0.00	30.214 
13:55	25.4	25.4	25.4	65	15.3	3	9	248	0.00	30.214 
14:00	25.7	25.7	25.7	65	15.6	3	7	248	0.00	30.215 
14:05	25.8	19.8	25.8	64	15.3	5	12	270	0.00	30.215 
14:10	26.1	26.1	26.1	64	15.6	3	11	248	0.00	30.215 
14:15	26.3	26.3	26.3	64	15.8	3	9	248	0.00	30.216 
14:20	26.3	21.5	26.3	64	15.8	4	15	248	0.00	30.216 
14:25	26.4	21.6	26.4	64	15.9	4	9	225	0.00	30.216 
14:30	26.6	26.6	26.6	64	16.1	3	14	248	0.00	30.210 
14:35	26.6	19.8	26.6	64	16.1	6	15	248	0.00	30.210 
14:40	26.7	26.7	26.7	64	16.2	3	8	248	0.00	30.210 
14:45	27.0	27.0	27.0	64	16.5	2	7	248	0.00	30.198 
14:50	27.2	27.2	27.2	64	16.7	2	7	248	0.00	30.198 
14:55	27.3	27.3	27.3	63	16.4	3	9	248	0.00	30.198 
15:00	27.5	27.5	27.5	63	16.6	3	8	248	0.00	30.198 
15:05	27.6	27.6	27.6	63	16.7	2	6	248	0.00	30.198 
15:10	27.8	27.8	27.8	62	16.5	3	12	248	0.00	30.198 
15:15	27.6	23.0	27.6	62	16.3	4	10	248	0.00	30.208 
15:20	27.6	27.6	27.6	63	16.7	2	6	248	0.00	30.208 
15:25	27.6	27.6	27.6	62	16.3	3	13	248	0.00	30.208 
15:30	27.5	22.9	27.5	63	16.6	4	13	248	0.00	30.210 
15:35	27.8	27.8	27.8	63	16.9	2	7	248	0.00	30.210 
15:40	27.9	27.9	27.9	62	16.6	3	9	248	0.00	30.210 
15:45	27.9	27.9	27.9	62	16.6	2	6	248	0.00	30.210 
15:50	27.9	27.9	27.9	62	16.6	3	8	248	0.00	30.210 
15:55	27.8	27.8	27.8	62	16.5	3	11	248	0.00	30.210 
16:00	27.8	27.8	27.8	62	16.5	2	6	248	0.00	30.211 
16:05	27.6	27.6	27.6	63	16.7	3	11	248	0.00	30.211 
16:10	27.3	27.3	27.3	64	16.8	2	9	248	0.00	30.211 
16:15	27.3	27.3	27.3	64	16.8	2	7	248	0.00	30.213 
16:20	27.2	27.2	27.2	65	17.0	2	6	248	0.00	30.213 
16:25	27.2	27.2	27.2	65	17.0	2	6	248	0.00	30.213 
16:30	27.2	27.2	27.2	65	17.0	3	7	248	0.00	30.213 
16:35	27.2	22.5	27.2	65	17.0	4	10	248	0.00	30.213 
16:40	27.2	27.2	27.2	65	17.0	3	9	248	0.00	30.213 
16:45	27.0	27.0	27.0	66	17.2	2	9	248	0.00	30.213 
16:50	27.0	27.0	27.0	66	17.2	2	6	248	0.00	30.213 
16:55	27.0	27.0	27.0	66	17.2	3	7	248	0.00	30.213 
17:00	26.9	26.9	26.9	67	17.4	3	17	248	0.00	30.213 
17:05	26.7	26.7	26.7	67	17.2	3	7	248	0.00	30.213 
17:10	26.7	26.7	26.7	68	17.6	2	6	248	0.00	30.213 
17:15	26.6	26.6	26.6	68	17.5	2	5	248	0.00	30.212 
17:20	26.4	26.4	26.4	69	17.6	2	9	248	0.00	30.212 
17:25	26.3	26.3	26.3	69	17.5	3	11	248	0.00	30.212 
17:30	26.1	26.1	26.1	69	17.3	2	6	248	0.00	30.216 
17:35	26.0	26.0	26.0	70	17.6	3	6	248	0.00	30.216 
17:40	26.0	26.0	26.0	71	17.9	3	7	248	0.00	30.216 
17:45	25.8	25.8	25.8	71	17.7	2	7	248	0.00	30.218 
17:50	25.8	25.8	25.8	71	17.7	2	7	248	0.00	30.218 
17:55	25.8	25.8	25.8	72	18.0	2	7	248	0.00	30.218 
18:00	25.7	25.7	25.7	72	17.9	3	7	248	0.00	30.222 
18:05	25.7	25.7	25.7	72	17.9	3	9	248	0.00	30.222 
18:10	25.7	25.7	25.7	73	18.3	2	7	248	0.00	30.222 
18:15	25.6	25.6	25.6	73	18.2	3	7	248	0.00	30.230 
18:20	25.6	25.6	25.6	73	18.2	2	9	248	0.00	30.230 
18:25	25.4	25.4	25.4	73	18.0	2	9	248	0.00	30.230 
18:30	25.4	25.4	25.4	73	18.0	3	12	248	0.00	30.234 
18:35	25.6	25.6	25.6	73	18.2	3	12	248	0.00	30.234 
18:40	25.6	25.6	25.6	73	18.2	2	5	248	0.00	30.234 
18:45	25.4	25.4	25.4	74	18.3	3	8	248	0.00	30.243 
18:50	25.4	25.4	25.4	74	18.3	3	10	248	0.00	30.243 
18:55	25.4	25.4	25.4	74	18.3	2	5	248	0.00	30.243 
19:00	25.4	25.4	25.4	74	18.3	3	7	248	0.00	30.249 
19:05	25.4	20.5	25.4	75	18.6	4	11	248	0.00	30.249 
19:10	25.4	25.4	25.4	75	18.6	2	6	270	0.00	30.249 
19:15	25.4	25.4	25.4	75	18.6	2	7	248	0.00	30.251 
19:20	25.4	25.4	25.4	75	18.6	3	10	248	0.00	30.251 
19:25	25.4	25.4	25.4	75	18.6	3	11	248	0.00	30.251 
19:30	25.4	25.4	25.4	75	18.6	3	7	248	0.00	30.251 
19:35	25.4	25.4	25.4	76	18.9	3	10	248	0.00	30.251 
19:40	25.6	25.6	25.6	76	19.1	2	7	248	0.00	30.251 
19:45	25.6	25.6	25.6	76	19.1	3	6	248	0.00	30.252 
19:50	25.6	25.6	25.6	76	19.1	2	10	248	0.00	30.252 
19:55	25.6	25.6	25.6	76	19.1	2	6	248	0.00	30.252 
20:00	25.6	25.6	25.6	76	19.1	3	7	248	0.00	30.260 
20:05	25.7	25.7	25.7	76	19.2	2	7	248	0.00	30.260 
20:10	25.7	25.7	25.7	76	19.2	3	7	248	0.00	30.260 
20:15	25.7	20.8	25.7	76	19.2	4	9	248	0.00	30.263 
20:20	25.8	25.8	25.8	76	19.3	2	5	248	0.00	30.263 
20:25	25.8	25.8	25.8	76	19.3	3	10	248	0.00	30.263 
20:30	25.8	25.8	25.8	76	19.3	3	7	248	0.00	30.266 
20:35	26.0	26.0	26.0	76	19.5	3	6	248	0.00	30.266 
20:40	26.0	26.0	26.0	76	19.5	3	9	248	0.00	30.266 
20:45	26.0	26.0	26.0	76	19.5	2	7	248	0.00	30.266 
20:50	25.8	25.8	25.8	77	19.6	2	6	248	0.00	30.266 
20:55	25.8	25.8	25.8	77	19.6	2	5	248	0.00	30.266 
21:00	25.8	25.8	25.8	77	19.6	2	5	248	0.00	30.265 
21:05	25.8	25.8	25.8	77	19.6	2	5	248	0.00	30.265 
21:10	25.8	25.8	25.8	77	19.6	1	4	248	0.00	30.265 
21:15	25.8	25.8	25.8	77	19.6	2	6	248	0.00	30.264 
21:20	25.8	25.8	25.8	77	19.6	2	5	248	0.00	30.264 
21:25	25.8	25.8	25.8	78	19.9	2	5	248	0.00	30.264 
21:30	25.8	25.8	25.8	78	19.9	2	6	248	0.00	30.265 
21:35	25.8	25.8	25.8	78	19.9	2	5	248	0.00	30.265 
21:40	26.0	26.0	26.0	78	20.1	2	6	248	0.00	30.265 
21:45	26.0	26.0	26.0	78	20.1	2	7	248	0.00	30.266 
21:50	26.1	26.1	26.1	78	20.2	2	4	248	0.00	30.266 
21:55	26.0	26.0	26.0	78	20.1	2	6	248	0.00	30.266 
22:00	26.0	26.0	26.0	78	20.1	2	5	248	0.00	30.267 
22:05	26.1	26.1	26.1	78	20.2	2	5	248	0.00	30.267 
22:10	26.1	26.1	26.1	78	20.2	3	9	248	0.00	30.267 
22:15	26.1	26.1	26.1	79	20.5	2	6	248	0.00	30.271 
22:20	26.0	26.0	26.0	79	20.4	2	5	248	0.00	30.271 
22:25	26.0	26.0	26.0	79	20.4	1	6	248	0.00	30.271 
22:30	26.0	26.0	26.0	79	20.4	3	7	248	0.00	30.274 
22:35	26.0	26.0	26.0	79	20.4	2	7	248	0.00	30.274 
22:40	26.0	26.0	26.0	79	20.4	2	6	248	0.00	30.274 
22:45	26.0	26.0	26.0	79	20.4	2	7	248	0.00	30.274 
22:50	25.8	25.8	25.8	79	20.2	1	4	225	0.00	30.274 
22:55	25.8	25.8	25.8	79	20.2	2	4	225	0.00	30.274 
23:00	25.7	25.7	25.7	79	20.1	2	5	248	0.00	30.277 
23:05	25.7	25.7	25.7	79	20.1	1	3	248	0.00	30.277 
23:10	25.6	25.6	25.6	79	20.0	2	5	248	0.00	30.277 
23:15	25.6	25.6	25.6	79	20.0	1	4	248	0.00	30.277 
23:20	25.6	25.6	25.6	80	20.3	2	5	248	0.00	30.277 
23:25	25.4	25.4	25.4	80	20.1	2	5	248	0.00	30.277 
23:30	25.4	25.4	25.4	80	20.1	2	6	248	0.00	30.278 
23:35	25.4	25.4	25.4	80	20.1	1	5	248	0.00	30.278 
23:40	25.4	25.4	25.4	80	20.1	1	4	248	0.00	30.278 
23:45	25.4	25.4	25.4	80	20.1	2	4	248	0.00	30.282 
23:50	25.4	25.4	25.4	80	20.1	1	4	248	0.00	30.282 
23:55	25.4	25.4	25.4	80	20.1	1	6	248	0.00	30.282 

CoCoRaHS
IN-AL-39
A2 Web Hosting
Creative Commons License
GoDaddy
search engine by freefind advanced

loaded 2018-11-22 06:32:05 • last modified 2010-11-18 10:43:29
Privacy PolicyDisclaimer
• wx.awcolley.com is powered by PmWiki v.2002016 •
• all content (unless otherwise noted) © 2018 A W Colley